Главная страница
METAR-TAF:

METAR-TAF

Аэропорты :

Гран-Канария, Испания

широта: 27-56N, долгота: 015-23W, высота над уровнем моря: 23 м

Текущие метеонаблюдения

Эта сводка был подготовлена 23 минут назад, в 23:30 UTC
Ветер 18 Узел от северный
Температура 23°C
Влажность 78%
Давление 1018 hPa
Видимость 10 км и более
небольшая облачность на высоте 2500 фута

METAR: GCLP 212330Z 01018KT 9999 FEW025 23/19 Q1018 NOSIG

Время: 00:53 (23:53 UTC)

Прогноз

Эта сводка был подготовлена 3 часа и 53 минут назад, в 20:00 UTC
Прогноз действительный с 21-го 21 UTC до 22-го 21 UTC
Ветер 17 Узел от северный
Видимость 10 км и более
небольшая облачность на высоте 3000 фута

TAF: GCLP 212000Z 2121/2221 01017KT 9999 FEW030 TX28/2214Z TN22/2205Z

Метеонаблюдения и прогнозы для более 4000 аэропортов (сводки METAR и TAF).

Имеющиеся станции представлены на карте желтыми и красными точками.

Чтобы увидеть название станции, наведите на нее мышь.

Затем щелкните, чтобы увидеть метеонаблюдения и метеопрогнозы.

Управление картой: чтобы увеличить масштаб, щелкните зеленые кнопки с черным крестиком; чтобы уменьшить масштаб, щелкните зеленую кнопку с тире; для просмотра соседних карт щелкайте зеленые стрелки.


METAR-TAF: